DAUI

Details ICAO DAUI (INZ)
Name IN SALAH
Region Algeria
Timezone Africa/Algiers (UTC+1.0)
Plans Departing 18
Arriving 21
Stats Elevation 896 ft / 273 m (AMSL)
Location 27.251000° 2.512020°
Runways 1
Magnetic Variation 0.518° E
Sunrise 2018-10-22 05:54:47 UTC / 2018-10-22 06:54:47 Local
Sunset 2018-10-22 17:16:24 UTC / 2018-10-22 18:16:24 Local
Advertisement - Login to hide

Runways

ID Width Length Bearing (true/mag) Surface Threshold Overrun Markings Lighting
05 148 ft / 45 m 9,827 ft / 2,995 m 50.81° / 50.29° ASPHALT 0 ft / 0 m 150 ft / 46 m APP EDGE THRESHOLD
23 148 ft / 45 m 9,827 ft / 2,995 m 230.82° / 230.30° ASPHALT 0 ft / 0 m 150 ft / 46 m APP EDGE THRESHOLD

Map

Weather


0- 5 10 15 20 25 30 35+ Temperature / °C

Clouds and Precipitation
Forecast for 2018-10-22 12:00 UTC. Updated 2 hours ago

Ground ~20,000 ft ~40,000 ft Winds

METAR

Not found

TAF

TAF DAUI 220500Z 2206/2306 34008KT CAVOK

Frequencies

Tower 118.10 MHz
Tower 119.70 MHz
Warning: Do not use this data for real-world aviation or navigation. No guarantee of current accuracy is given.